sensor_id;sensor_type;location;lat;lon;timestamp;pressure;altitude;pressure_sealevel;temperature;humidity
58223;BME280;44020;50.890;15.796;2023-03-19T00:05:41;97544.69;;;3.46;60.63
58223;BME280;44020;50.890;15.796;2023-03-19T00:22:11;97552.80;;;2.97;60.56
58223;BME280;44020;50.890;15.796;2023-03-19T00:25:38;97540.29;;;2.98;61.21
58223;BME280;44020;50.890;15.796;2023-03-19T01:05:16;97519.65;;;2.63;62.39
58223;BME280;44020;50.890;15.796;2023-03-19T01:11:26;97528.70;;;2.61;62.43
58223;BME280;44020;50.890;15.796;2023-03-19T01:14:08;97529.14;;;2.58;62.82
58223;BME280;44020;50.890;15.796;2023-03-19T01:16:53;97528.29;;;2.58;62.63
58223;BME280;44020;50.890;15.796;2023-03-19T01:19:53;97535.28;;;2.58;62.94
58223;BME280;44020;50.890;15.796;2023-03-19T01:26:10;97538.85;;;2.48;62.91
58223;BME280;44020;50.890;15.796;2023-03-19T01:28:52;97540.11;;;2.47;62.84
58223;BME280;44020;50.890;15.796;2023-03-19T01:31:51;97541.80;;;2.40;62.83
58223;BME280;44020;50.890;15.796;2023-03-19T01:40:58;97543.65;;;2.38;63.37
58223;BME280;44020;50.890;15.796;2023-03-19T01:50:43;97532.45;;;2.42;63.99
58223;BME280;44020;50.890;15.796;2023-03-19T01:57:25;97529.01;;;2.49;63.99
58223;BME280;44020;50.890;15.796;2023-03-19T02:00:27;97527.14;;;2.52;64.19
58223;BME280;44020;50.890;15.796;2023-03-19T02:12:22;97528.45;;;2.54;64.06
58223;BME280;44020;50.890;15.796;2023-03-19T02:15:01;97527.00;;;2.51;64.30
58223;BME280;44020;50.890;15.796;2023-03-19T02:17:45;97528.66;;;2.49;64.12
58223;BME280;44020;50.890;15.796;2023-03-19T02:28:04;97516.60;;;2.43;64.53
58223;BME280;44020;50.890;15.796;2023-03-19T02:50:32;97528.94;;;2.24;64.47
58223;BME280;44020;50.890;15.796;2023-03-19T03:13:43;97531.39;;;2.16;65.37
58223;BME280;44020;50.890;15.796;2023-03-19T03:23:28;97525.77;;;2.11;65.55
58223;BME280;44020;50.890;15.796;2023-03-19T03:37:26;97546.41;;;2.03;65.97
58223;BME280;44020;50.890;15.796;2023-03-19T03:54:23;97545.23;;;1.93;66.57
58223;BME280;44020;50.890;15.796;2023-03-19T04:10:16;97538.30;;;1.91;66.20
58223;BME280;44020;50.890;15.796;2023-03-19T04:27:10;97546.35;;;1.73;66.66
58223;BME280;44020;50.890;15.796;2023-03-19T04:30:16;97546.89;;;1.72;66.81
58223;BME280;44020;50.890;15.796;2023-03-19T04:34:08;97548.58;;;1.74;66.94
58223;BME280;44020;50.890;15.796;2023-03-19T04:47:23;97534.77;;;1.73;67.51
58223;BME280;44020;50.890;15.796;2023-03-19T04:53:59;97528.83;;;1.77;67.44
58223;BME280;44020;50.890;15.796;2023-03-19T04:57:05;97530.27;;;1.76;67.39
58223;BME280;44020;50.890;15.796;2023-03-19T05:03:16;97538.50;;;1.72;67.34
58223;BME280;44020;50.890;15.796;2023-03-19T05:09:50;97540.20;;;1.69;67.38
58223;BME280;44020;50.890;15.796;2023-03-19T05:25:57;97552.17;;;1.57;67.89
58223;BME280;44020;50.890;15.796;2023-03-19T05:28:36;97550.11;;;1.56;68.06
58223;BME280;44020;50.890;15.796;2023-03-19T05:34:29;97554.33;;;1.56;68.38
58223;BME280;44020;50.890;15.796;2023-03-19T05:37:21;97554.80;;;1.57;68.39
58223;BME280;44020;50.890;15.796;2023-03-19T05:40:04;97554.45;;;1.57;68.45
58223;BME280;44020;50.890;15.796;2023-03-19T05:42:34;97556.20;;;1.62;68.85
58223;BME280;44020;50.890;15.796;2023-03-19T05:45:14;97557.38;;;1.68;69.05
58223;BME280;44020;50.890;15.796;2023-03-19T05:51:27;97556.46;;;1.78;69.14
58223;BME280;44020;50.890;15.796;2023-03-19T05:54:28;97561.67;;;1.84;69.25
58223;BME280;44020;50.890;15.796;2023-03-19T05:57:30;97562.39;;;1.89;69.04
58223;BME280;44020;50.890;15.796;2023-03-19T06:00:11;97563.19;;;1.91;69.24
58223;BME280;44020;50.890;15.796;2023-03-19T06:02:45;97569.59;;;1.93;69.27
58223;BME280;44020;50.890;15.796;2023-03-19T06:05:36;97579.82;;;1.95;69.36
58223;BME280;44020;50.890;15.796;2023-03-19T06:08:07;97585.11;;;1.99;69.30
58223;BME280;44020;50.890;15.796;2023-03-19T06:11:09;97578.50;;;2.03;69.25
58223;BME280;44020;50.890;15.796;2023-03-19T06:13:36;97579.35;;;2.08;69.72
58223;BME280;44020;50.890;15.796;2023-03-19T06:16:06;97580.40;;;2.13;69.74
58223;BME280;44020;50.890;15.796;2023-03-19T06:18:40;97585.87;;;2.16;69.85
58223;BME280;44020;50.890;15.796;2023-03-19T06:21:49;97584.02;;;2.19;69.92
58223;BME280;44020;50.890;15.796;2023-03-19T06:24:20;97588.24;;;2.23;69.93
58223;BME280;44020;50.890;15.796;2023-03-19T06:27:06;97592.80;;;2.27;69.98
58223;BME280;44020;50.890;15.796;2023-03-19T06:29:43;97592.59;;;2.33;69.87
58223;BME280;44020;50.890;15.796;2023-03-19T06:32:17;97592.92;;;2.38;69.92
58223;BME280;44020;50.890;15.796;2023-03-19T06:34:55;97585.32;;;2.43;70.11
58223;BME280;44020;50.890;15.796;2023-03-19T06:37:37;97582.02;;;2.47;70.40
58223;BME280;44020;50.890;15.796;2023-03-19T06:40:12;97575.85;;;2.52;70.12
58223;BME280;44020;50.890;15.796;2023-03-19T06:42:52;97569.48;;;2.58;70.06
58223;BME280;44020;50.890;15.796;2023-03-19T06:45:20;97572.08;;;2.63;70.05
58223;BME280;44020;50.890;15.796;2023-03-19T06:47:51;97573.07;;;2.69;70.06
58223;BME280;44020;50.890;15.796;2023-03-19T06:53:49;97576.11;;;2.81;70.38
58223;BME280;44020;50.890;15.796;2023-03-19T06:56:37;97575.63;;;2.88;70.82
58223;BME280;44020;50.890;15.796;2023-03-19T06:59:30;97579.00;;;2.96;70.64
58223;BME280;44020;50.890;15.796;2023-03-19T07:02:21;97577.13;;;3.03;70.72
58223;BME280;44020;50.890;15.796;2023-03-19T07:04:52;97576.86;;;3.09;70.95
58223;BME280;44020;50.890;15.796;2023-03-19T07:08:00;97579.91;;;3.16;70.84
58223;BME280;44020;50.890;15.796;2023-03-19T07:11:17;97582.16;;;3.25;71.25
58223;BME280;44020;50.890;15.796;2023-03-19T07:14:05;97584.08;;;3.33;71.18
58223;BME280;44020;50.890;15.796;2023-03-19T07:16:36;97582.69;;;3.41;71.23
58223;BME280;44020;50.890;15.796;2023-03-19T07:19:12;97583.45;;;3.48;71.04
58223;BME280;44020;50.890;15.796;2023-03-19T07:21:46;97591.56;;;3.55;71.12
58223;BME280;44020;50.890;15.796;2023-03-19T07:24:17;97594.11;;;3.61;71.06
58223;BME280;44020;50.890;15.796;2023-03-19T07:27:06;97588.73;;;3.68;70.76
58223;BME280;44020;50.890;15.796;2023-03-19T07:29:35;97584.36;;;3.71;70.67
58223;BME280;44020;50.890;15.796;2023-03-19T07:32:06;97586.07;;;3.76;70.76
58223;BME280;44020;50.890;15.796;2023-03-19T07:34:40;97591.42;;;3.82;70.85
58223;BME280;44020;50.890;15.796;2023-03-19T07:40:05;97601.85;;;4.00;71.06
58223;BME280;44020;50.890;15.796;2023-03-19T07:42:54;97594.95;;;4.08;71.05
58223;BME280;44020;50.890;15.796;2023-03-19T07:45:32;97596.96;;;4.18;71.08
58223;BME280;44020;50.890;15.796;2023-03-19T07:48:25;97596.87;;;4.28;71.27
58223;BME280;44020;50.890;15.796;2023-03-19T07:51:34;97593.14;;;4.40;71.61
58223;BME280;44020;50.890;15.796;2023-03-19T07:57:20;97592.90;;;4.64;71.73
58223;BME280;44020;50.890;15.796;2023-03-19T08:06:28;97583.23;;;4.99;71.92
58223;BME280;44020;50.890;15.796;2023-03-19T08:09:45;97572.66;;;5.10;71.91
58223;BME280;44020;50.890;15.796;2023-03-19T08:12:16;97574.51;;;5.22;71.50
58223;BME280;44020;50.890;15.796;2023-03-19T08:15:00;97573.17;;;5.31;70.86
58223;BME280;44020;50.890;15.796;2023-03-19T08:17:27;97565.59;;;5.41;70.67
58223;BME280;44020;50.890;15.796;2023-03-19T08:20:10;97564.67;;;5.52;70.69
58223;BME280;44020;50.890;15.796;2023-03-19T08:22:56;97576.34;;;5.66;70.75
58223;BME280;44020;50.890;15.796;2023-03-19T08:29:13;97589.13;;;5.94;69.95
58223;BME280;44020;50.890;15.796;2023-03-19T08:31:48;97582.98;;;6.07;69.66
58223;BME280;44020;50.890;15.796;2023-03-19T08:34:30;97575.42;;;6.19;69.44
58223;BME280;44020;50.890;15.796;2023-03-19T08:37:19;97570.69;;;6.31;69.24
58223;BME280;44020;50.890;15.796;2023-03-19T08:39:49;97565.79;;;6.43;68.96
58223;BME280;44020;50.890;15.796;2023-03-19T08:42:21;97566.63;;;6.54;68.45
58223;BME280;44020;50.890;15.796;2023-03-19T08:45:03;97565.77;;;6.65;68.71
58223;BME280;44020;50.890;15.796;2023-03-19T08:48:05;97562.08;;;6.78;68.63
58223;BME280;44020;50.890;15.796;2023-03-19T08:51:04;97551.67;;;6.90;68.56
58223;BME280;44020;50.890;15.796;2023-03-19T08:54:06;97544.42;;;7.02;68.08
58223;BME280;44020;50.890;15.796;2023-03-19T08:56:53;97549.18;;;7.15;67.65
58223;BME280;44020;50.890;15.796;2023-03-19T08:59:44;97557.20;;;7.28;67.34
58223;BME280;44020;50.890;15.796;2023-03-19T09:02:47;97557.39;;;7.40;67.00
58223;BME280;44020;50.890;15.796;2023-03-19T09:05:35;97550.36;;;7.54;67.10
58223;BME280;44020;50.890;15.796;2023-03-19T09:08:33;97546.05;;;7.64;66.25
58223;BME280;44020;50.890;15.796;2023-03-19T09:10:59;97542.36;;;7.75;66.20
58223;BME280;44020;50.890;15.796;2023-03-19T09:13:53;97547.02;;;7.86;65.71
58223;BME280;44020;50.890;15.796;2023-03-19T09:16:30;97550.64;;;7.99;65.42
58223;BME280;44020;50.890;15.796;2023-03-19T09:19:10;97556.92;;;8.11;65.56
58223;BME280;44020;50.890;15.796;2023-03-19T09:24:41;97567.55;;;8.36;64.48
58223;BME280;44020;50.890;15.796;2023-03-19T09:27:13;97561.29;;;8.46;64.09
58223;BME280;44020;50.890;15.796;2023-03-19T09:29:52;97558.71;;;8.56;63.88
58223;BME280;44020;50.890;15.796;2023-03-19T09:32:30;97556.84;;;8.66;63.44
58223;BME280;44020;50.890;15.796;2023-03-19T09:34:58;97549.58;;;8.74;62.84
58223;BME280;44020;50.890;15.796;2023-03-19T09:37:32;97544.10;;;8.85;62.60
58223;BME280;44020;50.890;15.796;2023-03-19T09:40:06;97547.70;;;8.94;62.40
58223;BME280;44020;50.890;15.796;2023-03-19T09:43:04;97550.36;;;9.05;62.23
58223;BME280;44020;50.890;15.796;2023-03-19T09:45:37;97552.34;;;9.18;62.39
58223;BME280;44020;50.890;15.796;2023-03-19T09:48:13;97548.64;;;9.28;62.29
58223;BME280;44020;50.890;15.796;2023-03-19T09:51:11;97543.64;;;9.39;62.06
58223;BME280;44020;50.890;15.796;2023-03-19T09:54:16;97548.65;;;9.49;61.81
58223;BME280;44020;50.890;15.796;2023-03-19T09:56:49;97550.02;;;9.60;61.30
58223;BME280;44020;50.890;15.796;2023-03-19T10:05:31;97538.69;;;9.88;60.51
58223;BME280;44020;50.890;15.796;2023-03-19T10:13:59;97525.13;;;10.34;59.73
58223;BME280;44020;50.890;15.796;2023-03-19T10:16:38;97522.29;;;10.44;59.21
58223;BME280;44020;50.890;15.796;2023-03-19T10:19:09;97519.55;;;10.50;58.82
58223;BME280;44020;50.890;15.796;2023-03-19T10:22:01;97519.89;;;10.55;58.18
58223;BME280;44020;50.890;15.796;2023-03-19T10:25:10;97520.89;;;10.66;57.55
58223;BME280;44020;50.890;15.796;2023-03-19T10:27:45;97521.33;;;10.79;56.72
58223;BME280;44020;50.890;15.796;2023-03-19T10:30:22;97518.06;;;10.89;56.33
58223;BME280;44020;50.890;15.796;2023-03-19T10:33:21;97515.83;;;10.98;55.65
58223;BME280;44020;50.890;15.796;2023-03-19T10:36:01;97514.06;;;11.10;55.32
58223;BME280;44020;50.890;15.796;2023-03-19T10:38:31;97516.33;;;11.24;55.19
58223;BME280;44020;50.890;15.796;2023-03-19T10:41:40;97510.51;;;11.40;54.88
58223;BME280;44020;50.890;15.796;2023-03-19T10:44:37;97508.24;;;11.60;54.47
58223;BME280;44020;50.890;15.796;2023-03-19T10:47:11;97507.59;;;11.78;54.42
58223;BME280;44020;50.890;15.796;2023-03-19T10:49:49;97506.44;;;11.88;54.63
58223;BME280;44020;50.890;15.796;2023-03-19T10:52:27;97508.27;;;11.97;54.20
58223;BME280;44020;50.890;15.796;2023-03-19T10:55:04;97506.39;;;12.07;53.80
58223;BME280;44020;50.890;15.796;2023-03-19T10:57:41;97504.28;;;12.20;53.34
58223;BME280;44020;50.890;15.796;2023-03-19T11:00:22;97504.80;;;12.31;53.03
58223;BME280;44020;50.890;15.796;2023-03-19T11:02:54;97504.63;;;12.40;51.97
58223;BME280;44020;50.890;15.796;2023-03-19T11:14:53;97491.06;;;12.88;51.34
58223;BME280;44020;50.890;15.796;2023-03-19T11:17:25;97492.25;;;12.96;51.09
58223;BME280;44020;50.890;15.796;2023-03-19T11:19:56;97482.33;;;13.03;51.00
58223;BME280;44020;50.890;15.796;2023-03-19T11:22:31;97482.27;;;13.10;50.31
58223;BME280;44020;50.890;15.796;2023-03-19T11:25:02;97476.33;;;13.15;49.58
58223;BME280;44020;50.890;15.796;2023-03-19T11:27:45;97479.31;;;13.22;49.34
58223;BME280;44020;50.890;15.796;2023-03-19T11:30:21;97480.31;;;13.27;48.61
58223;BME280;44020;50.890;15.796;2023-03-19T11:33:24;97476.98;;;13.29;48.40
58223;BME280;44020;50.890;15.796;2023-03-19T11:51:03;97487.96;;;13.48;46.70
58223;BME280;44020;50.890;15.796;2023-03-19T11:54:12;97484.94;;;13.50;46.67
58223;BME280;44020;50.890;15.796;2023-03-19T12:12:18;97472.34;;;13.79;46.01
58223;BME280;44020;50.890;15.796;2023-03-19T12:15:13;97473.15;;;13.86;46.39
58223;BME280;44020;50.890;15.796;2023-03-19T12:21:45;97473.38;;;13.95;46.35
58223;BME280;44020;50.890;15.796;2023-03-19T12:24:53;97465.24;;;13.99;46.40
58223;BME280;44020;50.890;15.796;2023-03-19T12:33:44;97459.92;;;14.10;46.24
58223;BME280;44020;50.890;15.796;2023-03-19T12:39:57;97465.94;;;14.17;46.35
58223;BME280;44020;50.890;15.796;2023-03-19T12:45:46;97461.91;;;14.22;46.28
58223;BME280;44020;50.890;15.796;2023-03-19T12:48:30;97458.73;;;14.24;46.05
58223;BME280;44020;50.890;15.796;2023-03-19T12:51:09;97459.95;;;14.26;46.18
58223;BME280;44020;50.890;15.796;2023-03-19T12:54:47;97466.21;;;14.28;46.16
58223;BME280;44020;50.890;15.796;2023-03-19T12:57:24;97465.57;;;14.27;45.90
58223;BME280;44020;50.890;15.796;2023-03-19T13:00:18;97465.41;;;14.23;45.83
58223;BME280;44020;50.890;15.796;2023-03-19T13:03:11;97466.36;;;14.22;46.04
58223;BME280;44020;50.890;15.796;2023-03-19T13:05:54;97469.48;;;14.23;46.05
58223;BME280;44020;50.890;15.796;2023-03-19T13:15:07;97475.29;;;14.20;46.00
58223;BME280;44020;50.890;15.796;2023-03-19T13:21:53;97478.27;;;14.17;46.35
58223;BME280;44020;50.890;15.796;2023-03-19T13:26:55;97482.89;;;14.09;46.30
58223;BME280;44020;50.890;15.796;2023-03-19T13:29:26;97482.30;;;14.08;46.51
58223;BME280;44020;50.890;15.796;2023-03-19T13:32:24;97486.43;;;14.07;46.06
58223;BME280;44020;50.890;15.796;2023-03-19T13:38:26;97489.09;;;13.98;46.01
58223;BME280;44020;50.890;15.796;2023-03-19T13:41:01;97484.09;;;13.93;45.91
58223;BME280;44020;50.890;15.796;2023-03-19T13:43:55;97486.20;;;13.92;45.72
58223;BME280;44020;50.890;15.796;2023-03-19T13:46:29;97481.02;;;13.88;45.92
58223;BME280;44020;50.890;15.796;2023-03-19T13:52:09;97473.77;;;13.85;46.13
58223;BME280;44020;50.890;15.796;2023-03-19T13:54:46;97471.18;;;13.84;46.10
58223;BME280;44020;50.890;15.796;2023-03-19T13:57:21;97469.81;;;13.83;46.27
58223;BME280;44020;50.890;15.796;2023-03-19T14:03:40;97474.16;;;13.83;46.01
58223;BME280;44020;50.890;15.796;2023-03-19T14:06:51;97475.84;;;13.79;45.80
58223;BME280;44020;50.890;15.796;2023-03-19T14:12:24;97468.30;;;13.80;46.10
58223;BME280;44020;50.890;15.796;2023-03-19T14:15:26;97472.93;;;13.88;46.13
58223;BME280;44020;50.890;15.796;2023-03-19T14:18:36;97470.23;;;14.05;46.12
58223;BME280;44020;50.890;15.796;2023-03-19T14:25:17;97468.25;;;14.25;45.80
58223;BME280;44020;50.890;15.796;2023-03-19T14:30:50;97467.77;;;14.37;45.66
58223;BME280;44020;50.890;15.796;2023-03-19T14:34:06;97468.44;;;14.47;45.64
58223;BME280;44020;50.890;15.796;2023-03-19T14:39:45;97471.15;;;14.65;45.59
58223;BME280;44020;50.890;15.796;2023-03-19T14:43:06;97473.23;;;14.73;45.30
58223;BME280;44020;50.890;15.796;2023-03-19T14:49:19;97470.64;;;14.86;45.29
58223;BME280;44020;50.890;15.796;2023-03-19T14:55:21;97471.20;;;15.00;45.07
58223;BME280;44020;50.890;15.796;2023-03-19T14:58:19;97472.52;;;14.99;44.96
58223;BME280;44020;50.890;15.796;2023-03-19T15:01:12;97471.23;;;14.97;44.90
58223;BME280;44020;50.890;15.796;2023-03-19T15:07:03;97477.52;;;14.85;44.72
58223;BME280;44020;50.890;15.796;2023-03-19T15:09:32;97472.22;;;14.79;44.69
58223;BME280;44020;50.890;15.796;2023-03-19T15:18:17;97469.97;;;14.68;44.58
58223;BME280;44020;50.890;15.796;2023-03-19T15:24:26;97470.08;;;14.61;44.84
58223;BME280;44020;50.890;15.796;2023-03-19T15:27:20;97472.04;;;14.57;44.88
58223;BME280;44020;50.890;15.796;2023-03-19T15:29:52;97475.46;;;14.55;44.82
58223;BME280;44020;50.890;15.796;2023-03-19T15:32:38;97474.02;;;14.51;44.74
58223;BME280;44020;50.890;15.796;2023-03-19T15:35:25;97476.33;;;14.47;44.88
58223;BME280;44020;50.890;15.796;2023-03-19T15:37:59;97476.84;;;14.43;44.90
58223;BME280;44020;50.890;15.796;2023-03-19T15:40:53;97480.62;;;14.41;44.87
58223;BME280;44020;50.890;15.796;2023-03-19T15:43:29;97475.20;;;14.37;45.00
58223;BME280;44020;50.890;15.796;2023-03-19T15:46:20;97474.02;;;14.32;44.73
58223;BME280;44020;50.890;15.796;2023-03-19T15:52:04;97474.10;;;14.26;44.98
58223;BME280;44020;50.890;15.796;2023-03-19T15:54:37;97481.74;;;14.20;44.83
58223;BME280;44020;50.890;15.796;2023-03-19T15:57:21;97483.14;;;14.16;45.09
58223;BME280;44020;50.890;15.796;2023-03-19T16:00:07;97485.44;;;14.12;45.15
58223;BME280;44020;50.890;15.796;2023-03-19T16:02:40;97487.06;;;14.10;45.38
58223;BME280;44020;50.890;15.796;2023-03-19T16:05:38;97482.59;;;14.07;45.30
58223;BME280;44020;50.890;15.796;2023-03-19T16:08:25;97485.84;;;14.00;45.45
58223;BME280;44020;50.890;15.796;2023-03-19T16:11:40;97489.06;;;13.96;45.58
58223;BME280;44020;50.890;15.796;2023-03-19T16:13:59;97490.27;;;13.92;45.73
58223;BME280;44020;50.890;15.796;2023-03-19T16:16:38;97492.84;;;13.91;45.90
58223;BME280;44020;50.890;15.796;2023-03-19T16:19:32;97488.05;;;13.89;46.15
58223;BME280;44020;50.890;15.796;2023-03-19T16:22:21;97493.14;;;13.88;46.22
58223;BME280;44020;50.890;15.796;2023-03-19T16:25:25;97492.95;;;13.84;46.54
58223;BME280;44020;50.890;15.796;2023-03-19T16:28:35;97497.38;;;13.78;46.82
58223;BME280;44020;50.890;15.796;2023-03-19T16:31:21;97498.35;;;13.75;47.33
58223;BME280;44020;50.890;15.796;2023-03-19T16:38:05;97505.18;;;13.66;47.79
58223;BME280;44020;50.890;15.796;2023-03-19T16:41:15;97509.48;;;13.56;48.07
58223;BME280;44020;50.890;15.796;2023-03-19T16:44:09;97516.86;;;13.45;48.45
58223;BME280;44020;50.890;15.796;2023-03-19T16:49:25;97523.04;;;13.31;49.05
58223;BME280;44020;50.890;15.796;2023-03-19T16:52:19;97527.38;;;13.23;49.02
58223;BME280;44020;50.890;15.796;2023-03-19T16:54:59;97524.41;;;13.16;49.13
58223;BME280;44020;50.890;15.796;2023-03-19T16:57:42;97526.17;;;13.10;49.43
58223;BME280;44020;50.890;15.796;2023-03-19T17:02:56;97525.10;;;12.97;49.76
58223;BME280;44020;50.890;15.796;2023-03-19T17:05:25;97533.30;;;12.91;49.93
58223;BME280;44020;50.890;15.796;2023-03-19T17:08:02;97533.07;;;12.83;50.20
58223;BME280;44020;50.890;15.796;2023-03-19T17:11:00;97540.22;;;12.76;50.45
58223;BME280;44020;50.890;15.796;2023-03-19T17:13:34;97537.25;;;12.68;50.63
58223;BME280;44020;50.890;15.796;2023-03-19T17:19:55;97548.13;;;12.49;50.97
58223;BME280;44020;50.890;15.796;2023-03-19T17:22:40;97549.30;;;12.38;51.39
58223;BME280;44020;50.890;15.796;2023-03-19T17:28:11;97547.76;;;12.22;51.94
58223;BME280;44020;50.890;15.796;2023-03-19T17:30:44;97550.08;;;12.15;51.88
58223;BME280;44020;50.890;15.796;2023-03-19T17:36:32;97552.61;;;11.97;52.64
58223;BME280;44020;50.890;15.796;2023-03-19T17:39:09;97553.66;;;11.87;52.48
58223;BME280;44020;50.890;15.796;2023-03-19T17:41:40;97555.06;;;11.67;52.68
58223;BME280;44020;50.890;15.796;2023-03-19T17:47:35;97560.79;;;11.59;53.03
58223;BME280;44020;50.890;15.796;2023-03-19T17:53:01;97557.81;;;11.54;53.19
58223;BME280;44020;50.890;15.796;2023-03-19T17:55:48;97566.25;;;11.49;53.42
58223;BME280;44020;50.890;15.796;2023-03-19T17:59:11;97564.63;;;11.44;53.36
58223;BME280;44020;50.890;15.796;2023-03-19T18:01:42;97563.24;;;11.39;53.53
58223;BME280;44020;50.890;15.796;2023-03-19T18:04:24;97564.72;;;11.38;53.76
58223;BME280;44020;50.890;15.796;2023-03-19T18:06:58;97566.90;;;11.35;54.01
58223;BME280;44020;50.890;15.796;2023-03-19T18:09:29;97564.98;;;11.30;54.02
58223;BME280;44020;50.890;15.796;2023-03-19T18:12:04;97567.36;;;11.27;54.25
58223;BME280;44020;50.890;15.796;2023-03-19T18:14:34;97572.23;;;11.23;54.34
58223;BME280;44020;50.890;15.796;2023-03-19T18:17:16;97574.11;;;11.20;54.49
58223;BME280;44020;50.890;15.796;2023-03-19T18:19:55;97575.22;;;11.17;54.58
58223;BME280;44020;50.890;15.796;2023-03-19T18:22:22;97573.77;;;11.15;54.84
58223;BME280;44020;50.890;15.796;2023-03-19T18:24:54;97576.15;;;11.10;54.73
58223;BME280;44020;50.890;15.796;2023-03-19T18:27:27;97576.52;;;11.02;55.22
58223;BME280;44020;50.890;15.796;2023-03-19T18:30:03;97580.86;;;10.96;55.25
58223;BME280;44020;50.890;15.796;2023-03-19T18:36:39;97576.54;;;10.85;55.77
58223;BME280;44020;50.890;15.796;2023-03-19T18:39:17;97577.42;;;10.77;56.02
58223;BME280;44020;50.890;15.796;2023-03-19T18:41:45;97573.75;;;10.72;56.21
58223;BME280;44020;50.890;15.796;2023-03-19T18:44:16;97578.91;;;10.69;56.31
58223;BME280;44020;50.890;15.796;2023-03-19T18:47:02;97576.79;;;10.69;56.47
58223;BME280;44020;50.890;15.796;2023-03-19T18:49:40;97575.59;;;10.69;56.54
58223;BME280;44020;50.890;15.796;2023-03-19T18:52:27;97578.25;;;10.66;56.77
58223;BME280;44020;50.890;15.796;2023-03-19T18:54:55;97573.30;;;10.63;56.90
58223;BME280;44020;50.890;15.796;2023-03-19T18:57:47;97575.48;;;10.60;57.34
58223;BME280;44020;50.890;15.796;2023-03-19T19:00:30;97573.23;;;10.59;57.21
58223;BME280;44020;50.890;15.796;2023-03-19T19:03:16;97579.70;;;10.58;57.39
58223;BME280;44020;50.890;15.796;2023-03-19T19:06:18;97587.27;;;10.57;57.55
58223;BME280;44020;50.890;15.796;2023-03-19T19:09:04;97590.54;;;10.53;57.81
58223;BME280;44020;50.890;15.796;2023-03-19T19:11:45;97589.84;;;10.48;57.78
58223;BME280;44020;50.890;15.796;2023-03-19T19:15:14;97593.10;;;10.37;57.75
58223;BME280;44020;50.890;15.796;2023-03-19T19:18:14;97593.23;;;10.28;58.12
58223;BME280;44020;50.890;15.796;2023-03-19T19:20:55;97594.67;;;10.25;58.28
58223;BME280;44020;50.890;15.796;2023-03-19T19:23:34;97597.70;;;10.22;58.33
58223;BME280;44020;50.890;15.796;2023-03-19T19:26:25;97596.67;;;10.19;58.64
58223;BME280;44020;50.890;15.796;2023-03-19T19:29:06;97599.23;;;10.15;58.65
58223;BME280;44020;50.890;15.796;2023-03-19T19:31:49;97601.63;;;10.09;58.97
58223;BME280;44020;50.890;15.796;2023-03-19T19:37:43;97602.05;;;9.95;59.52
58223;BME280;44020;50.890;15.796;2023-03-19T19:43:38;97604.25;;;9.87;60.02
58223;BME280;44020;50.890;15.796;2023-03-19T19:49:43;97605.61;;;9.74;60.13
58223;BME280;44020;50.890;15.796;2023-03-19T19:52:41;97606.41;;;9.68;60.39
58223;BME280;44020;50.890;15.796;2023-03-19T19:58:47;97610.06;;;9.59;60.99
58223;BME280;44020;50.890;15.796;2023-03-19T20:01:50;97608.17;;;9.55;61.19
58223;BME280;44020;50.890;15.796;2023-03-19T20:08:03;97609.06;;;9.52;61.68
58223;BME280;44020;50.890;15.796;2023-03-19T20:10:59;97610.26;;;9.53;61.63
58223;BME280;44020;50.890;15.796;2023-03-19T20:20:31;97617.45;;;9.47;62.06
58223;BME280;44020;50.890;15.796;2023-03-19T20:23:05;97616.11;;;9.45;62.21
58223;BME280;44020;50.890;15.796;2023-03-19T20:29:09;97621.79;;;9.46;62.60
58223;BME280;44020;50.890;15.796;2023-03-19T20:34:41;97622.75;;;9.39;62.79
58223;BME280;44020;50.890;15.796;2023-03-19T20:37:50;97628.17;;;9.34;63.12
58223;BME280;44020;50.890;15.796;2023-03-19T20:45:09;97627.19;;;9.25;63.58
58223;BME280;44020;50.890;15.796;2023-03-19T20:47:34;97627.87;;;9.23;63.71
58223;BME280;44020;50.890;15.796;2023-03-19T20:53:59;97637.81;;;9.15;64.29
58223;BME280;44020;50.890;15.796;2023-03-19T20:56:35;97636.48;;;9.16;64.19
58223;BME280;44020;50.890;15.796;2023-03-19T21:06:29;97643.01;;;9.14;64.11
58223;BME280;44020;50.890;15.796;2023-03-19T21:08:54;97647.78;;;9.11;64.20
58223;BME280;44020;50.890;15.796;2023-03-19T21:11:35;97648.48;;;9.03;64.07
58223;BME280;44020;50.890;15.796;2023-03-19T21:14:17;97648.06;;;9.02;64.79
58223;BME280;44020;50.890;15.796;2023-03-19T21:17:01;97649.41;;;9.00;64.58
58223;BME280;44020;50.890;15.796;2023-03-19T21:19:38;97651.17;;;8.94;64.86
58223;BME280;44020;50.890;15.796;2023-03-19T21:22:24;97649.73;;;8.95;65.08
58223;BME280;44020;50.890;15.796;2023-03-19T21:25:35;97644.08;;;8.98;65.38
58223;BME280;44020;50.890;15.796;2023-03-19T21:29:10;97647.38;;;8.99;65.25
58223;BME280;44020;50.890;15.796;2023-03-19T21:31:49;97647.80;;;9.00;65.46
58223;BME280;44020;50.890;15.796;2023-03-19T21:34:23;97647.80;;;9.03;65.38
58223;BME280;44020;50.890;15.796;2023-03-19T21:37:12;97645.75;;;9.05;65.46
58223;BME280;44020;50.890;15.796;2023-03-19T21:39:45;97647.63;;;9.06;65.41
58223;BME280;44020;50.890;15.796;2023-03-19T21:42:38;97648.15;;;9.03;65.40
58223;BME280;44020;50.890;15.796;2023-03-19T21:45:29;97651.19;;;8.94;65.52
58223;BME280;44020;50.890;15.796;2023-03-19T21:50:51;97652.92;;;8.87;66.03
58223;BME280;44020;50.890;15.796;2023-03-19T21:53:28;97652.56;;;8.87;66.11
58223;BME280;44020;50.890;15.796;2023-03-19T21:55:58;97657.54;;;8.84;66.16
58223;BME280;44020;50.890;15.796;2023-03-19T21:58:35;97656.98;;;8.81;66.26
58223;BME280;44020;50.890;15.796;2023-03-19T22:01:24;97653.08;;;8.76;66.38
58223;BME280;44020;50.890;15.796;2023-03-19T22:07:00;97652.90;;;8.68;66.71
58223;BME280;44020;50.890;15.796;2023-03-19T22:09:39;97654.84;;;8.68;66.93
58223;BME280;44020;50.890;15.796;2023-03-19T22:16:28;97654.14;;;8.67;66.96